createdAt,value
2023-03-05T00:01:39.717Z,1.90
2023-03-05T00:04:41.476Z,2.30
2023-03-05T00:07:43.172Z,2.07
2023-03-05T00:10:44.843Z,2.00
2023-03-05T00:13:47.210Z,2.30
2023-03-05T00:16:48.851Z,1.93
2023-03-05T00:19:50.558Z,2.30
2023-03-05T00:22:52.217Z,2.47
2023-03-05T00:25:54.118Z,2.20
2023-03-05T00:28:57.434Z,2.67
2023-03-05T00:31:59.156Z,1.93
2023-03-05T00:35:00.816Z,2.63
2023-03-05T00:38:02.446Z,2.27
2023-03-05T00:41:04.375Z,1.90
2023-03-05T00:44:06.332Z,2.07
2023-03-05T00:47:08.010Z,1.97
2023-03-05T00:50:10.359Z,1.80
2023-03-05T00:53:12.029Z,1.77
2023-03-05T00:56:13.857Z,1.60
2023-03-05T00:59:15.581Z,1.63
2023-03-05T01:02:17.272Z,1.97
2023-03-05T01:05:19.100Z,2.40
2023-03-05T01:08:20.860Z,2.00
2023-03-05T01:11:22.710Z,2.03
2023-03-05T01:14:24.400Z,2.60
2023-03-05T01:17:27.337Z,2.83
2023-03-05T01:20:29.076Z,2.53
2023-03-05T01:23:30.757Z,2.80
2023-03-05T01:26:32.413Z,3.53
2023-03-05T01:29:34.061Z,3.23
2023-03-05T01:32:36.291Z,2.73
2023-03-05T01:35:38.030Z,3.40
2023-03-05T01:38:39.728Z,3.17
2023-03-05T01:41:41.460Z,3.13
2023-03-05T01:45:06.842Z,2.83
2023-03-05T01:48:08.510Z,3.23
2023-03-05T01:51:10.473Z,3.37
2023-03-05T01:54:15.363Z,3.10
2023-03-05T01:57:23.000Z,3.60
2023-03-05T02:00:35.384Z,3.10
2023-03-05T02:03:37.927Z,2.70
2023-03-05T02:06:42.459Z,3.10
2023-03-05T02:09:44.571Z,2.80
2023-03-05T02:12:48.324Z,2.77
2023-03-05T02:15:52.409Z,2.73
2023-03-05T02:18:54.112Z,2.80
2023-03-05T02:21:55.801Z,3.23
2023-03-05T02:24:57.455Z,3.30
2023-03-05T02:28:06.211Z,3.20
2023-03-05T02:31:20.156Z,2.90
2023-03-05T02:34:23.442Z,3.07
2023-03-05T02:37:25.142Z,3.73
2023-03-05T02:40:26.914Z,4.03
2023-03-05T02:43:28.564Z,3.50
2023-03-05T02:46:30.285Z,4.03
2023-03-05T02:49:32.024Z,4.03
2023-03-05T02:52:33.698Z,4.07
2023-03-05T02:55:35.731Z,4.03
2023-03-05T02:58:37.449Z,3.77
2023-03-05T03:01:39.209Z,3.97
2023-03-05T03:04:41.050Z,3.80
2023-03-05T03:07:42.708Z,3.60
2023-03-05T03:10:44.496Z,3.87
2023-03-05T03:13:46.175Z,3.43
2023-03-05T03:16:48.188Z,3.30
2023-03-05T03:19:49.880Z,3.40
2023-03-05T03:22:51.548Z,3.40
2023-03-05T03:25:53.282Z,3.60
2023-03-05T03:28:55.029Z,3.27
2023-03-05T03:31:57.081Z,3.40
2023-03-05T03:34:59.013Z,3.30
2023-03-05T03:38:00.685Z,2.77
2023-03-05T03:41:02.301Z,3.57
2023-03-05T03:44:07.083Z,3.33
2023-03-05T03:47:08.793Z,3.57
2023-03-05T03:50:11.203Z,3.57
2023-03-05T03:53:14.240Z,3.33
2023-03-05T03:56:15.990Z,3.80
2023-03-05T03:59:17.697Z,3.57
2023-03-05T04:02:19.400Z,4.00
2023-03-05T04:05:21.120Z,3.67
2023-03-05T04:08:22.825Z,4.67
2023-03-05T04:11:24.979Z,4.43
2023-03-05T04:14:27.249Z,3.90
2023-03-05T04:17:28.883Z,4.67
2023-03-05T04:20:30.641Z,4.47
2023-03-05T04:23:32.541Z,4.53
2023-03-05T04:26:34.474Z,4.37
2023-03-05T04:29:36.231Z,5.17
2023-03-05T04:32:38.020Z,3.97
2023-03-05T04:35:39.971Z,4.03
2023-03-05T04:38:41.717Z,3.90
2023-03-05T04:41:43.371Z,4.30
2023-03-05T04:44:45.070Z,4.37
2023-03-05T04:47:46.717Z,4.20
2023-03-05T04:50:48.472Z,3.90
2023-03-05T04:53:50.305Z,4.50
2023-03-05T04:56:52.002Z,4.43
2023-03-05T04:59:53.774Z,4.50
2023-03-05T05:02:55.645Z,4.67
2023-03-05T05:05:58.668Z,4.43
2023-03-05T05:09:00.574Z,4.20
2023-03-05T05:12:05.210Z,5.10
2023-03-05T05:15:08.895Z,4.77
2023-03-05T05:18:10.574Z,4.40
2023-03-05T05:21:14.377Z,4.70
2023-03-05T05:24:16.019Z,5.30
2023-03-05T05:27:17.676Z,4.70
2023-03-05T05:30:19.356Z,5.10
2023-03-05T05:33:22.175Z,5.30
2023-03-05T05:36:24.017Z,4.60
2023-03-05T05:39:25.780Z,5.00
2023-03-05T05:42:29.438Z,5.33
2023-03-05T05:45:31.426Z,5.10
2023-03-05T05:48:34.710Z,5.00
2023-03-05T05:51:36.417Z,4.80
2023-03-05T05:54:38.867Z,5.43
2023-03-05T05:57:40.957Z,5.70
2023-03-05T06:00:42.882Z,4.83
2023-03-05T06:03:44.760Z,5.20
2023-03-05T06:06:46.500Z,5.17
2023-03-05T06:09:48.830Z,5.57
2023-03-05T06:12:50.591Z,5.20
2023-03-05T06:15:58.015Z,5.23
2023-03-05T06:19:00.105Z,5.33
2023-03-05T06:22:01.912Z,5.13
2023-03-05T06:25:04.940Z,4.80
2023-03-05T06:28:06.671Z,5.40
2023-03-05T06:31:10.453Z,5.57
2023-03-05T06:34:12.258Z,5.60
2023-03-05T06:37:14.031Z,5.23
2023-03-05T06:40:15.909Z,4.83
2023-03-05T06:43:18.186Z,5.27
2023-03-05T06:46:29.624Z,4.97
2023-03-05T06:49:31.378Z,4.93
2023-03-05T06:52:33.072Z,5.03
2023-03-05T06:55:39.766Z,4.50
2023-03-05T06:58:42.051Z,4.70
2023-03-05T07:01:44.699Z,4.80
2023-03-05T07:04:47.403Z,5.00
2023-03-05T07:07:49.116Z,4.47
2023-03-05T07:10:50.871Z,4.97
2023-03-05T07:13:52.655Z,4.43
2023-03-05T07:16:54.425Z,4.70
2023-03-05T07:19:56.174Z,4.43
2023-03-05T07:22:57.976Z,4.40
2023-03-05T07:26:05.316Z,4.67
2023-03-05T07:29:07.063Z,4.90
2023-03-05T07:32:08.932Z,4.47
2023-03-05T07:35:10.829Z,4.97
2023-03-05T07:38:12.539Z,5.27
2023-03-05T07:41:19.895Z,4.90
2023-03-05T07:44:21.658Z,4.90
2023-03-05T07:47:23.657Z,4.70
2023-03-05T07:50:25.369Z,4.37
2023-03-05T07:53:27.124Z,5.30
2023-03-05T07:56:35.395Z,4.83
2023-03-05T07:59:38.442Z,4.97
2023-03-05T08:02:40.408Z,4.87
2023-03-05T08:05:42.493Z,5.03
2023-03-05T08:08:44.259Z,4.40
2023-03-05T08:11:46.056Z,4.33
2023-03-05T08:14:47.988Z,4.10
2023-03-05T08:17:49.802Z,3.90
2023-03-05T08:20:51.627Z,3.60
2023-03-05T08:23:53.631Z,4.03
2023-03-05T08:26:57.430Z,4.60
2023-03-05T08:30:01.107Z,4.30
2023-03-05T08:33:02.854Z,3.83
2023-03-05T08:36:04.846Z,4.07
2023-03-05T08:39:09.957Z,3.40
2023-03-05T08:42:11.714Z,3.50
2023-03-05T08:45:13.773Z,3.53
2023-03-05T08:48:15.721Z,3.73
2023-03-05T08:51:22.273Z,3.83
2023-03-05T08:54:24.016Z,3.63
2023-03-05T08:57:25.779Z,3.77
2023-03-05T09:00:27.597Z,3.43
2023-03-05T09:03:29.360Z,3.53
2023-03-05T09:06:31.227Z,3.80
2023-03-05T09:09:33.068Z,4.27
2023-03-05T09:12:34.796Z,3.73
2023-03-05T09:15:36.822Z,3.73
2023-03-05T09:18:40.220Z,3.67
2023-03-05T09:21:42.387Z,3.27
2023-03-05T09:24:44.184Z,3.50
2023-03-05T09:27:46.056Z,3.30
2023-03-05T09:30:47.857Z,3.17
2023-03-05T09:33:50.151Z,3.40
2023-03-05T09:36:51.920Z,3.50
2023-03-05T09:39:53.626Z,3.00
2023-03-05T09:43:02.816Z,2.90
2023-03-05T09:46:31.955Z,3.13
2023-03-05T09:49:45.144Z,3.10
2023-03-05T09:52:57.193Z,2.57
2023-03-05T09:56:04.200Z,3.20
2023-03-05T09:59:19.150Z,2.77
2023-03-05T10:02:26.102Z,2.40
2023-03-05T10:05:52.887Z,3.00
2023-03-05T10:09:12.497Z,2.90
2023-03-05T10:12:17.255Z,2.90
2023-03-05T10:15:50.384Z,2.63
2023-03-05T10:19:05.629Z,2.43
2023-03-05T10:22:20.594Z,2.60
2023-03-05T10:25:53.345Z,2.77
2023-03-05T10:29:20.165Z,2.77
2023-03-05T10:32:34.004Z,3.10
2023-03-05T10:35:52.028Z,2.70
2023-03-05T10:39:08.781Z,2.67
2023-03-05T10:42:29.566Z,2.30
2023-03-05T10:45:41.615Z,3.00
2023-03-05T10:48:45.341Z,2.10
2023-03-05T10:51:59.659Z,2.33
2023-03-05T10:55:01.666Z,1.90
2023-03-05T10:58:14.856Z,2.00
2023-03-05T11:01:16.736Z,2.20
2023-03-05T11:04:30.390Z,2.00
2023-03-05T11:07:35.654Z,2.27
2023-03-05T11:10:37.430Z,2.60
2023-03-05T11:14:00.653Z,2.33
2023-03-05T11:17:23.434Z,2.30
2023-03-05T11:20:28.901Z,2.03
2023-03-05T11:23:30.740Z,2.13
2023-03-05T11:26:33.134Z,2.60
2023-03-05T11:29:34.979Z,3.00
2023-03-05T11:32:36.722Z,2.20
2023-03-05T11:35:41.979Z,2.13
2023-03-05T11:39:00.614Z,2.60
2023-03-05T11:42:17.147Z,2.30
2023-03-05T11:45:19.420Z,2.57
2023-03-05T11:48:21.156Z,2.07
2023-03-05T11:51:31.490Z,2.00
2023-03-05T11:54:46.648Z,2.07
2023-03-05T11:58:24.096Z,2.17
2023-03-05T12:01:29.573Z,2.07
2023-03-05T12:04:33.914Z,2.33
2023-03-05T12:07:41.469Z,1.40
2023-03-05T12:10:43.200Z,1.73
2023-03-05T12:14:06.684Z,1.50
2023-03-05T12:17:18.213Z,1.67
2023-03-05T12:20:41.938Z,1.50
2023-03-05T12:23:51.902Z,1.80
2023-03-05T12:26:54.247Z,2.50
2023-03-05T12:30:01.021Z,2.50
2023-03-05T12:33:04.766Z,3.37
2023-03-05T12:36:36.877Z,2.60
2023-03-05T12:39:45.155Z,2.60
2023-03-05T12:42:53.278Z,2.67
2023-03-05T12:46:23.842Z,2.57
2023-03-05T12:49:27.960Z,2.47
2023-03-05T12:52:33.688Z,2.40
2023-03-05T12:55:49.776Z,2.10
2023-03-05T12:58:55.224Z,2.50
2023-03-05T13:02:04.682Z,4.00
2023-03-05T13:05:37.208Z,2.30
2023-03-05T13:08:38.946Z,2.23
2023-03-05T13:11:43.096Z,2.87
2023-03-05T13:15:04.869Z,3.10
2023-03-05T13:18:08.570Z,3.87
2023-03-05T13:21:15.325Z,2.77
2023-03-05T13:24:18.882Z,2.33
2023-03-05T13:27:29.500Z,2.33
2023-03-05T13:30:33.593Z,2.50
2023-03-05T13:33:36.533Z,2.33
2023-03-05T13:36:39.805Z,2.20
2023-03-05T13:39:48.428Z,2.40
2023-03-05T13:42:50.405Z,2.13
2023-03-05T13:45:56.502Z,2.33
2023-03-05T13:49:17.978Z,2.07
2023-03-05T13:52:29.631Z,1.67
2023-03-05T13:55:31.296Z,2.30
2023-03-05T13:58:49.197Z,2.00
2023-03-05T14:01:52.371Z,2.00
2023-03-05T14:04:54.239Z,2.03
2023-03-05T14:07:56.642Z,2.13
2023-03-05T14:11:10.716Z,2.60
2023-03-05T14:14:17.884Z,1.90
2023-03-05T14:17:43.643Z,2.00
2023-03-05T14:21:10.072Z,2.00
2023-03-05T14:24:14.989Z,1.97
2023-03-05T14:27:19.794Z,1.77
2023-03-05T14:30:23.903Z,1.80
2023-03-05T14:33:30.207Z,1.90
2023-03-05T14:36:34.038Z,1.70
2023-03-05T14:39:51.523Z,2.10
2023-03-05T14:42:53.738Z,2.20
2023-03-05T14:45:55.454Z,1.60
2023-03-05T14:48:57.214Z,1.70
2023-03-05T14:51:58.877Z,1.70
2023-03-05T14:55:00.949Z,2.00
2023-03-05T14:58:14.580Z,1.70
2023-03-05T15:01:16.394Z,1.87
2023-03-05T15:04:19.829Z,1.80
2023-03-05T15:07:27.072Z,2.00
2023-03-05T15:10:28.825Z,2.23
2023-03-05T15:13:31.700Z,2.77
2023-03-05T15:16:33.375Z,2.43
2023-03-05T15:19:35.144Z,2.17
2023-03-05T15:22:37.309Z,2.17
2023-03-05T15:25:39.656Z,2.07
2023-03-05T15:28:42.886Z,1.80
2023-03-05T15:31:44.615Z,2.00
2023-03-05T15:34:46.319Z,2.33
2023-03-05T15:37:47.996Z,2.40
2023-03-05T15:40:50.579Z,1.80
2023-03-05T15:43:52.259Z,1.70
2023-03-05T15:46:54.006Z,2.70
2023-03-05T15:49:55.672Z,2.23
2023-03-05T15:52:58.119Z,2.57
2023-03-05T15:55:59.827Z,2.20
2023-03-05T15:59:01.549Z,1.90
2023-03-05T16:02:03.990Z,2.07
2023-03-05T16:05:06.293Z,1.67
2023-03-05T16:08:08.718Z,2.07
2023-03-05T16:11:10.856Z,2.70
2023-03-05T16:14:17.477Z,1.80
2023-03-05T16:17:25.301Z,2.20
2023-03-05T16:20:27.090Z,1.90
2023-03-05T16:23:29.892Z,1.90
2023-03-05T16:26:34.246Z,2.70
2023-03-05T16:29:35.980Z,2.10
2023-03-05T16:32:38.619Z,3.27
2023-03-05T16:35:40.417Z,2.57
2023-03-05T16:38:42.100Z,1.70
2023-03-05T16:41:43.759Z,1.70
2023-03-05T16:44:46.809Z,1.77
2023-03-05T16:47:48.467Z,1.67
2023-03-05T16:50:50.197Z,1.83
2023-03-05T16:53:51.883Z,1.80
2023-03-05T16:56:54.062Z,1.87
2023-03-05T16:59:56.504Z,2.10
2023-03-05T17:02:58.288Z,1.80
2023-03-05T17:05:59.947Z,2.00
2023-03-05T17:09:02.933Z,2.60
2023-03-05T17:12:05.513Z,2.30
2023-03-05T17:15:07.888Z,2.20
2023-03-05T17:18:10.043Z,2.10
2023-03-05T17:21:13.025Z,2.80
2023-03-05T17:24:14.698Z,2.43
2023-03-05T17:27:18.814Z,2.77
2023-03-05T17:30:20.608Z,3.47
2023-03-05T17:33:22.345Z,3.30
2023-03-05T17:36:25.246Z,3.70
2023-03-05T17:39:27.030Z,2.77
2023-03-05T17:42:28.705Z,3.23
2023-03-05T17:45:30.448Z,3.70
2023-03-05T17:48:34.029Z,3.63
2023-03-05T17:51:35.853Z,3.63
2023-03-05T17:54:37.576Z,3.43
2023-03-05T17:57:41.463Z,4.10
2023-03-05T18:00:43.655Z,3.50
2023-03-05T18:03:45.335Z,3.73
2023-03-05T18:06:47.107Z,3.87
2023-03-05T18:09:48.775Z,3.70
2023-03-05T18:12:50.885Z,3.87
2023-03-05T18:15:52.828Z,3.50
2023-03-05T18:18:54.620Z,3.40
2023-03-05T18:21:56.338Z,3.30
2023-03-05T18:24:58.146Z,3.47
2023-03-05T18:28:02.097Z,3.20
2023-03-05T18:31:05.000Z,3.13
2023-03-05T18:34:06.814Z,3.20
2023-03-05T18:37:08.526Z,4.03
2023-03-05T18:40:19.481Z,3.43
2023-03-05T18:43:24.096Z,3.60
2023-03-05T18:46:25.898Z,4.27
2023-03-05T18:49:28.681Z,3.80
2023-03-05T18:52:30.313Z,3.90
2023-03-05T18:55:32.532Z,4.80
2023-03-05T18:58:34.469Z,4.40
2023-03-05T19:01:36.286Z,4.03
2023-03-05T19:04:37.993Z,3.90
2023-03-05T19:07:39.823Z,3.80
2023-03-05T19:10:41.512Z,3.53
2023-03-05T19:13:44.245Z,3.97
2023-03-05T19:16:45.915Z,3.37
2023-03-05T19:19:52.389Z,4.17
2023-03-05T19:22:55.676Z,4.90
2023-03-05T19:25:57.669Z,4.70
2023-03-05T19:28:59.464Z,4.23
2023-03-05T19:32:01.234Z,5.00
2023-03-05T19:35:03.962Z,5.03
2023-03-05T19:38:05.664Z,5.07
2023-03-05T19:41:10.492Z,4.80
2023-03-05T19:44:13.331Z,4.83
2023-03-05T19:47:15.055Z,4.67
2023-03-05T19:50:17.010Z,4.10
2023-03-05T19:53:18.639Z,4.00
2023-03-05T19:56:20.621Z,4.40
2023-03-05T19:59:23.342Z,4.20
2023-03-05T20:02:27.088Z,4.20
2023-03-05T20:05:28.927Z,4.70
2023-03-05T20:08:30.666Z,4.50
2023-03-05T20:11:32.865Z,4.60
2023-03-05T20:14:34.736Z,4.77
2023-03-05T20:17:36.480Z,4.03
2023-03-05T20:20:38.268Z,4.17
2023-03-05T20:23:40.057Z,4.77
2023-03-05T20:26:43.656Z,4.83
2023-03-05T20:29:45.764Z,4.50
2023-03-05T20:32:47.587Z,5.30
2023-03-05T20:35:49.751Z,4.03
2023-03-05T20:38:51.464Z,4.17
2023-03-05T20:41:53.244Z,3.97
2023-03-05T20:44:54.939Z,3.70
2023-03-05T20:47:56.768Z,3.67
2023-03-05T20:51:01.302Z,3.43
2023-03-05T20:54:06.238Z,3.90
2023-03-05T20:57:07.911Z,3.50
2023-03-05T21:00:10.371Z,3.57
2023-03-05T21:03:13.235Z,3.50
2023-03-05T21:06:15.416Z,3.37
2023-03-05T21:09:17.154Z,3.67
2023-03-05T21:12:18.811Z,3.20
2023-03-05T21:15:24.728Z,3.20
2023-03-05T21:18:29.659Z,3.37
2023-03-05T21:21:31.704Z,3.73
2023-03-05T21:24:43.736Z,4.50
2023-03-05T21:27:50.356Z,4.07
2023-03-05T21:30:54.092Z,3.83
2023-03-05T21:33:55.763Z,3.97
2023-03-05T21:36:57.442Z,3.73
2023-03-05T21:39:59.126Z,3.37
2023-03-05T21:43:00.947Z,3.63
2023-03-05T21:46:03.254Z,3.47
2023-03-05T21:49:05.024Z,3.80
2023-03-05T21:52:11.619Z,3.97
2023-03-05T21:55:15.856Z,4.27
2023-03-05T21:58:17.544Z,4.27
2023-03-05T22:01:21.093Z,3.90
2023-03-05T22:04:23.006Z,3.47
2023-03-05T22:07:24.757Z,4.17
2023-03-05T22:10:26.498Z,4.33
2023-03-05T22:13:28.151Z,4.17
2023-03-05T22:16:29.811Z,5.27
2023-03-05T22:19:31.512Z,6.90
2023-03-05T22:22:33.166Z,6.40
2023-03-05T22:25:35.083Z,7.43
2023-03-05T22:28:38.933Z,6.17
2023-03-05T22:31:40.642Z,5.37
2023-03-05T22:34:42.386Z,5.10
2023-03-05T22:37:44.224Z,6.47
2023-03-05T22:40:47.706Z,5.77
2023-03-05T22:43:50.269Z,4.87
2023-03-05T22:46:51.938Z,5.13
2023-03-05T22:49:54.253Z,5.37
2023-03-05T22:52:55.934Z,5.70
2023-03-05T22:55:57.707Z,6.07
2023-03-05T22:58:59.403Z,5.67
2023-03-05T23:02:01.136Z,5.80
2023-03-05T23:05:03.559Z,5.63
2023-03-05T23:08:06.119Z,6.33
2023-03-05T23:11:10.830Z,6.63
2023-03-05T23:14:12.518Z,6.13
2023-03-05T23:17:14.502Z,6.53
2023-03-05T23:20:19.478Z,6.33
2023-03-05T23:23:21.182Z,7.30
2023-03-05T23:26:22.961Z,7.53
2023-03-05T23:29:27.398Z,7.53
2023-03-05T23:32:29.327Z,7.23
2023-03-05T23:35:37.006Z,7.33
2023-03-05T23:38:38.862Z,8.20
2023-03-05T23:41:40.515Z,7.97
2023-03-05T23:44:42.156Z,8.37
2023-03-05T23:47:44.212Z,8.13
2023-03-05T23:50:48.092Z,8.67
2023-03-05T23:53:49.786Z,8.33
2023-03-05T23:56:51.444Z,8.03
